Airfield :
LOGIN :

Register | Disclaimer

   EN    FR    IT 

 










Legend :    VFR   Marginal VFR   IFR   Intensive IFR   Very Intensive IFR
Visi :
Ceiling :
>= 8 km
>= 3000ft
5 to 8 km
1000 to 3000 ft
1500m to 5 km
500 to 1000 ft
800 to 1500m
200 to 500 ft
< 800m
< 200 ft
Symbols :   Thunderstorms  Fog  Heavy snow  Heavy precipitations  Wind > 20 kt
SIGMETs :     Misc.  Thunderstorms  Icing  Turbulence  Mountain Waves  Volcanic Ashes






- Airport Elevation : 1455 ft


ETIH - Hohenfels Army Air Field

CURRENT METAR :
  • 281956Z AUTO 00000KT M M CLR 08/03 A3001 RMK AO2 SLP167 T00830027 RVRNO $

EXPIRED METARs :
  • 281856Z AUTO 26003KT M M SCT095 11/03 A3001 RMK AO2 SLP167 T01110029 RVRNO $
  • 281756Z AUTO 28004KT M M FEW060 14/01 A3001 RMK AO2 SLP163 T01430009 10164 20140 56007 RVRNO $
  • 281656Z AUTO 29006KT M M SCT095 15/M00 A3001 RMK AO2 SLP163 T01481001 RVRNO

TAF TAF ETIH
Valid from the 28 at 06:00 until the 29 at 12:00 UTC


2806/2912 30012G18KT 9999 FEW026 510043 QNH3001INS
BECMG 2817/2818 VRB06KT 9999 SCT050 QNH2989INS
BECMG 2910/2911 VRB06KT 9000 -SHRA SCT030 QNH2988INS
BECMG 2911/2912 32009KT 9000 -SHRA FEW030 QNH2986INS TX13/2814Z TN06/2823Z



MET'MAP, your aeronautical weather chart ! - Copyright ORBIFLY December 2007 - Disclaimer

ORBIFLY MET'MAP TEAM :

Programming & Development : Alexandra Zaïnal
Original concept : Baudouin d'Aumeries
Technical & hardware support : Manuel Goepfert
Assistance : Marc-Olivier Méhu

Contact : metmap@orbifly.com




SOURCES & CREDITS :

   NOAA